createdAt,value
2018-05-10T00:02:15.255Z,17.80
2018-05-10T00:04:41.366Z,17.70
2018-05-10T00:07:07.766Z,17.70
2018-05-10T00:09:33.877Z,17.60
2018-05-10T00:11:59.981Z,17.60
2018-05-10T00:14:26.106Z,17.50
2018-05-10T00:16:52.221Z,17.50
2018-05-10T00:19:18.373Z,17.40
2018-05-10T00:21:44.508Z,17.40
2018-05-10T00:24:10.632Z,17.40
2018-05-10T00:26:36.760Z,17.30
2018-05-10T00:29:02.885Z,17.30
2018-05-10T00:31:29.809Z,17.20
2018-05-10T00:33:55.905Z,17.20
2018-05-10T00:36:22.807Z,17.10
2018-05-10T00:38:48.980Z,17.10
2018-05-10T00:41:15.838Z,17.00
2018-05-10T00:43:41.941Z,17.00
2018-05-10T00:46:08.836Z,17.00
2018-05-10T00:48:34.960Z,17.00
2018-05-10T00:51:01.072Z,17.00
2018-05-10T00:53:27.185Z,17.00
2018-05-10T00:55:53.543Z,16.90
2018-05-10T00:58:19.651Z,16.80
2018-05-10T01:03:37.562Z,16.70
2018-05-10T01:06:03.802Z,16.70
2018-05-10T01:08:31.417Z,16.60
2018-05-10T01:10:57.742Z,16.60
2018-05-10T01:13:25.233Z,16.60
2018-05-10T01:15:52.175Z,16.60
2018-05-10T01:18:19.332Z,16.60
2018-05-10T01:20:45.499Z,16.50
2018-05-10T01:23:11.624Z,16.50
2018-05-10T01:25:39.045Z,16.50
2018-05-10T01:28:05.182Z,16.40
2018-05-10T01:30:31.318Z,16.40
2018-05-10T01:32:57.417Z,16.40
2018-05-10T01:35:35.894Z,16.40
2018-05-10T01:38:04.523Z,16.30
2018-05-10T01:40:32.140Z,16.30
2018-05-10T01:42:59.090Z,16.20
2018-05-10T01:45:25.253Z,16.20
2018-05-10T01:47:51.392Z,16.10
2018-05-10T01:50:17.652Z,16.00
2018-05-10T01:52:44.209Z,16.00
2018-05-10T01:55:11.099Z,16.00
2018-05-10T01:57:37.453Z,16.00
2018-05-10T02:00:03.780Z,16.00
2018-05-10T02:02:29.892Z,16.00
2018-05-10T02:04:56.139Z,15.90
2018-05-10T02:07:22.385Z,15.80
2018-05-10T02:09:49.250Z,15.80
2018-05-10T02:12:16.260Z,15.80
2018-05-10T02:14:42.408Z,15.80
2018-05-10T02:17:08.636Z,15.70
2018-05-10T02:19:34.893Z,15.70
2018-05-10T02:22:01.488Z,15.60
2018-05-10T02:24:27.974Z,15.50
2018-05-10T02:26:55.195Z,15.50
2018-05-10T02:29:21.371Z,15.50
2018-05-10T02:31:47.529Z,15.40
2018-05-10T02:34:13.757Z,15.40
2018-05-10T02:36:42.491Z,15.40
2018-05-10T02:39:08.791Z,15.30
2018-05-10T02:41:35.295Z,15.30
2018-05-10T02:44:01.514Z,15.30
2018-05-10T02:46:27.681Z,15.30
2018-05-10T02:48:53.839Z,15.20
2018-05-10T02:51:21.472Z,15.10
2018-05-10T02:53:47.747Z,15.10
2018-05-10T02:56:13.910Z,15.00
2018-05-10T02:58:40.289Z,15.00
2018-05-10T03:01:06.730Z,15.00
2018-05-10T03:03:32.930Z,15.00
2018-05-10T03:05:59.805Z,14.80
2018-05-10T03:08:26.047Z,14.80
2018-05-10T03:10:52.283Z,14.80
2018-05-10T03:13:18.649Z,14.80
2018-05-10T03:15:45.801Z,14.70
2018-05-10T03:18:11.999Z,14.70
2018-05-10T03:20:38.193Z,14.60
2018-05-10T03:23:04.341Z,14.60
2018-05-10T03:25:30.741Z,14.50
2018-05-10T03:27:59.768Z,14.50
2018-05-10T03:30:25.885Z,14.50
2018-05-10T03:32:51.987Z,14.50
2018-05-10T03:35:18.159Z,14.50
2018-05-10T03:37:44.292Z,14.40
2018-05-10T03:40:10.430Z,14.30
2018-05-10T03:42:36.578Z,14.30
2018-05-10T03:45:03.481Z,14.20
2018-05-10T03:47:29.593Z,14.20
2018-05-10T03:49:56.740Z,14.20
2018-05-10T03:52:22.944Z,14.10
2018-05-10T03:54:49.835Z,14.10
2018-05-10T03:57:18.159Z,14.10
2018-05-10T03:59:44.287Z,14.10
2018-05-10T04:02:11.164Z,14.00
2018-05-10T04:04:50.153Z,14.00
2018-05-10T04:07:28.802Z,14.00
2018-05-10T04:10:07.248Z,14.00
2018-05-10T04:12:34.914Z,14.00
2018-05-10T04:15:02.817Z,14.00
2018-05-10T04:17:28.984Z,14.00
2018-05-10T04:19:55.143Z,14.00
2018-05-10T04:22:21.986Z,14.00
2018-05-10T04:24:48.117Z,14.00
2018-05-10T04:27:15.141Z,14.00
2018-05-10T04:29:41.688Z,14.10
2018-05-10T04:32:07.897Z,14.20
2018-05-10T04:34:34.038Z,14.20
2018-05-10T04:37:00.300Z,14.20
2018-05-10T04:39:26.481Z,14.10
2018-05-10T04:41:52.750Z,14.10
2018-05-10T04:44:19.011Z,14.10
2018-05-10T04:46:45.150Z,14.10
2018-05-10T04:49:11.284Z,14.00
2018-05-10T04:51:37.396Z,14.10
2018-05-10T04:54:04.276Z,14.20
2018-05-10T04:56:30.399Z,14.20
2018-05-10T04:58:56.578Z,14.20
2018-05-10T05:01:23.454Z,14.30
2018-05-10T05:03:49.596Z,14.30
2018-05-10T05:06:15.709Z,14.40
2018-05-10T05:08:41.848Z,14.40
2018-05-10T05:11:08.690Z,14.20
2018-05-10T05:13:34.970Z,14.20
2018-05-10T05:16:02.854Z,14.10
2018-05-10T05:18:29.022Z,14.10
2018-05-10T05:20:55.195Z,14.10
2018-05-10T05:23:22.382Z,14.10
2018-05-10T05:25:48.607Z,14.10
2018-05-10T05:28:14.709Z,14.00
2018-05-10T05:30:40.852Z,14.00
2018-05-10T05:33:06.997Z,14.20
2018-05-10T05:35:33.238Z,14.20
2018-05-10T05:37:59.333Z,14.20
2018-05-10T05:40:26.353Z,14.20
2018-05-10T05:42:52.446Z,14.10
2018-05-10T05:45:18.637Z,14.30
2018-05-10T05:47:44.733Z,14.40
2018-05-10T05:50:10.874Z,14.30
2018-05-10T05:52:37.041Z,14.30
2018-05-10T05:55:03.908Z,14.30
2018-05-10T05:57:30.454Z,14.40
2018-05-10T05:59:56.789Z,14.50
2018-05-10T06:02:23.321Z,14.40
2018-05-10T06:04:50.854Z,14.30
2018-05-10T06:07:17.330Z,14.30
2018-05-10T06:09:44.009Z,14.20
2018-05-10T06:12:10.298Z,14.20
2018-05-10T06:14:38.534Z,14.20
2018-05-10T06:17:05.811Z,14.30
2018-05-10T06:19:36.515Z,14.50
2018-05-10T06:22:17.011Z,14.40
2018-05-10T06:25:07.571Z,14.40
2018-05-10T06:27:36.732Z,14.50
2018-05-10T06:30:11.851Z,14.80
2018-05-10T06:32:41.227Z,14.80
2018-05-10T06:35:12.157Z,14.80
2018-05-10T06:37:40.499Z,14.70
2018-05-10T06:40:10.859Z,14.80
2018-05-10T06:42:47.464Z,14.90
2018-05-10T06:47:59.607Z,14.90
2018-05-10T06:53:18.159Z,14.90
2018-05-10T06:55:44.459Z,15.00
2018-05-10T06:58:26.235Z,15.10
2018-05-10T07:00:56.211Z,15.30
2018-05-10T07:03:28.763Z,15.60
2018-05-10T07:21:17.754Z,15.80
2018-05-10T07:23:43.978Z,15.70
2018-05-10T07:26:10.064Z,15.70
2018-05-10T07:28:36.142Z,15.60
2018-05-10T07:31:02.654Z,15.60
2018-05-10T07:33:28.835Z,15.60
2018-05-10T07:35:55.453Z,15.60
2018-05-10T07:38:21.625Z,15.70
2018-05-10T07:40:47.950Z,15.90
2018-05-10T07:43:14.181Z,16.10
2018-05-10T07:45:40.312Z,16.10
2018-05-10T07:48:06.446Z,16.20
2018-05-10T07:50:32.617Z,16.10
2018-05-10T07:52:58.757Z,16.20
2018-05-10T07:55:24.897Z,16.20
2018-05-10T07:57:51.035Z,16.30
2018-05-10T08:00:17.327Z,16.30
2018-05-10T08:02:43.611Z,16.20
2018-05-10T08:05:09.772Z,16.10
2018-05-10T08:07:35.931Z,16.20
2018-05-10T08:10:02.233Z,16.20
2018-05-10T08:12:30.178Z,16.20
2018-05-10T08:14:58.948Z,16.40
2018-05-10T08:17:26.259Z,16.70
2018-05-10T08:19:52.653Z,16.60
2018-05-10T08:22:21.136Z,17.00
2018-05-10T08:24:47.397Z,17.00
2018-05-10T08:27:13.911Z,17.00
2018-05-10T08:29:48.832Z,17.10
2018-05-10T08:32:16.594Z,17.30
2018-05-10T08:34:47.242Z,17.40
2018-05-10T08:37:20.868Z,17.40
2018-05-10T08:39:48.148Z,17.40
2018-05-10T08:42:17.899Z,17.60
2018-05-10T08:56:56.767Z,17.40
2018-05-10T08:59:35.479Z,17.30
2018-05-10T09:02:20.061Z,17.20
2018-05-10T09:04:51.658Z,17.20
2018-05-10T09:07:33.546Z,17.30
2018-05-10T09:10:09.332Z,17.50
2018-05-10T09:12:36.464Z,17.20
2018-05-10T09:15:07.119Z,17.40
2018-05-10T09:17:36.861Z,17.40
2018-05-10T09:20:24.256Z,17.70
2018-05-10T09:23:00.384Z,17.60
2018-05-10T09:25:34.129Z,17.90
2018-05-10T09:28:17.659Z,18.20
2018-05-10T09:30:57.992Z,18.00
2018-05-10T09:36:28.681Z,17.70
2018-05-10T09:42:05.957Z,17.80
2018-05-10T09:47:30.628Z,18.00
2018-05-10T09:49:57.066Z,17.80
2018-05-10T09:52:26.461Z,17.40
2018-05-10T09:54:54.183Z,17.20
2018-05-10T10:00:51.880Z,17.10
2018-05-10T10:03:18.318Z,17.20
2018-05-10T10:05:44.740Z,17.30
2018-05-10T10:08:10.851Z,17.30
2018-05-10T10:10:37.514Z,17.40
2018-05-10T10:13:03.917Z,17.30
2018-05-10T10:15:31.353Z,17.30
2018-05-10T10:17:58.454Z,17.20
2018-05-10T10:20:27.444Z,17.20
2018-05-10T10:22:55.337Z,17.20
2018-05-10T10:25:21.976Z,17.20
2018-05-10T10:27:52.722Z,16.90
2018-05-10T10:30:27.244Z,17.10
2018-05-10T10:32:56.634Z,17.20
2018-05-10T10:35:27.147Z,17.20
2018-05-10T10:37:56.775Z,17.50
2018-05-10T10:40:24.234Z,17.50
2018-05-10T10:42:52.921Z,17.40
2018-05-10T10:45:20.772Z,17.30
2018-05-10T10:47:51.833Z,17.30
2018-05-10T10:50:19.619Z,17.60
2018-05-10T10:52:46.338Z,17.60
2018-05-10T10:55:13.590Z,17.80
2018-05-10T10:57:47.178Z,17.70
2018-05-10T11:00:14.855Z,17.70
2018-05-10T11:02:47.110Z,17.60
2018-05-10T11:05:17.474Z,17.70
2018-05-10T11:07:45.599Z,17.60
2018-05-10T11:10:14.776Z,17.40
2018-05-10T11:12:43.762Z,17.30
2018-05-10T11:15:11.098Z,17.30
2018-05-10T11:17:39.712Z,17.00
2018-05-10T11:20:14.979Z,17.00
2018-05-10T11:22:43.330Z,16.70
2018-05-10T11:25:11.382Z,15.90
2018-05-10T11:27:38.525Z,15.60
2018-05-10T11:30:06.108Z,15.60
2018-05-10T11:32:32.383Z,15.60
2018-05-10T11:34:59.580Z,15.70
2018-05-10T11:37:25.914Z,15.60
2018-05-10T11:39:52.109Z,15.80
2018-05-10T11:42:18.478Z,15.90
2018-05-10T11:44:44.630Z,16.10
2018-05-10T11:47:16.896Z,16.10
2018-05-10T11:49:45.601Z,16.10
2018-05-10T11:52:12.103Z,16.10
2018-05-10T11:54:38.574Z,15.80
2018-05-10T11:57:04.779Z,15.80
2018-05-10T11:59:31.086Z,15.60
2018-05-10T12:01:57.740Z,15.40
2018-05-10T12:04:23.919Z,15.20
2018-05-10T12:06:50.138Z,15.20
2018-05-10T12:09:16.398Z,15.30
2018-05-10T12:11:43.403Z,15.60
2018-05-10T12:14:09.814Z,15.60
2018-05-10T12:16:38.073Z,15.80
2018-05-10T12:19:05.125Z,16.00
2018-05-10T12:21:31.559Z,16.00
2018-05-10T12:23:58.406Z,16.30
2018-05-10T12:26:26.557Z,16.40
2018-05-10T12:28:53.976Z,16.50
2018-05-10T12:34:20.741Z,15.80
2018-05-10T12:36:56.393Z,15.40
2018-05-10T12:39:35.024Z,15.40
2018-05-10T12:42:16.246Z,15.20
2018-05-10T12:44:48.801Z,15.10
2018-05-10T12:47:21.411Z,14.90
2018-05-10T12:49:51.604Z,14.90
2018-05-10T12:52:26.182Z,15.20
2018-05-10T12:54:59.135Z,15.40
2018-05-10T12:57:33.976Z,15.40
2018-05-10T13:00:10.595Z,15.40
2018-05-10T13:05:35.266Z,15.50
2018-05-10T13:08:07.708Z,15.60
2018-05-10T13:10:36.751Z,15.60
2018-05-10T13:37:36.228Z,16.70
2018-05-10T13:40:05.084Z,16.90
2018-05-10T13:42:54.512Z,17.00
2018-05-10T13:45:25.151Z,17.10
2018-05-10T13:48:10.210Z,17.20
2018-05-10T13:50:50.933Z,16.90
2018-05-10T13:53:22.177Z,16.90
2018-05-10T13:56:53.930Z,17.10
2018-05-10T13:59:27.637Z,17.10
2018-05-10T14:05:06.181Z,16.80
2018-05-10T14:10:21.390Z,17.00
2018-05-10T14:13:23.295Z,17.00
2018-05-10T14:16:03.352Z,17.10
2018-05-10T14:18:53.520Z,17.20
2018-05-10T14:21:20.351Z,17.10
2018-05-10T14:26:39.556Z,16.90
2018-05-10T14:35:20.396Z,16.90
2018-05-10T14:38:06.936Z,16.90
2018-05-10T14:40:36.428Z,16.90
2018-05-10T14:43:12.509Z,16.80
2018-05-10T14:45:40.068Z,16.80
2018-05-10T14:48:24.759Z,16.80
2018-05-10T14:53:37.891Z,16.80
2018-05-10T14:56:05.726Z,17.00
2018-05-10T14:58:31.863Z,17.00
2018-05-10T15:01:01.132Z,17.20
2018-05-10T15:06:12.040Z,17.60
2018-05-10T15:08:46.972Z,18.10
2018-05-10T15:11:17.932Z,19.10
2018-05-10T15:13:49.248Z,20.00
2018-05-10T15:16:20.568Z,20.30
2018-05-10T15:21:57.996Z,20.00
2018-05-10T15:24:28.049Z,19.60
2018-05-10T15:27:20.772Z,19.10
2018-05-10T15:37:40.726Z,19.60
2018-05-10T15:42:47.336Z,19.20
2018-05-10T15:45:18.579Z,18.90
2018-05-10T15:47:45.060Z,19.10
2018-05-10T15:50:11.741Z,21.00
2018-05-10T15:52:38.317Z,22.30
2018-05-10T15:55:06.086Z,22.20
2018-05-10T15:57:42.805Z,21.40
2018-05-10T16:00:15.100Z,20.30
2018-05-10T16:02:41.247Z,19.10
2018-05-10T16:05:38.356Z,18.50
2018-05-10T16:08:08.580Z,17.90
2018-05-10T16:10:38.249Z,17.90
2018-05-10T16:13:06.886Z,17.90
2018-05-10T16:15:39.937Z,18.00
2018-05-10T16:18:06.709Z,18.10
2018-05-10T16:20:33.663Z,18.20
2018-05-10T16:23:03.225Z,18.20
2018-05-10T16:25:29.974Z,18.10
2018-05-10T16:27:57.004Z,18.00
2018-05-10T16:33:27.939Z,17.70
2018-05-10T16:35:54.473Z,17.60
2018-05-10T16:38:20.762Z,17.50
2018-05-10T16:40:49.259Z,17.50
2018-05-10T16:43:15.660Z,17.40
2018-05-10T16:45:54.730Z,17.40
2018-05-10T16:48:20.975Z,17.50
2018-05-10T16:50:49.410Z,17.40
2018-05-10T16:53:15.799Z,17.40
2018-05-10T16:55:42.026Z,17.30
2018-05-10T16:58:09.181Z,17.20
2018-05-10T17:00:39.564Z,17.10
2018-05-10T17:03:11.270Z,17.00
2018-05-10T17:05:40.667Z,17.00
2018-05-10T17:08:09.686Z,17.00
2018-05-10T17:13:25.639Z,17.00
2018-05-10T17:15:53.849Z,17.00
2018-05-10T17:18:24.702Z,17.00
2018-05-10T17:20:59.188Z,16.90
2018-05-10T17:23:25.754Z,16.90
2018-05-10T17:26:05.013Z,16.90
2018-05-10T17:28:32.632Z,16.90
2018-05-10T17:30:59.145Z,16.90
2018-05-10T17:33:25.363Z,16.80
2018-05-10T17:35:52.228Z,16.80
2018-05-10T17:38:18.454Z,16.70
2018-05-10T17:40:44.929Z,16.80
2018-05-10T17:43:13.115Z,16.80
2018-05-10T17:45:41.690Z,16.80
2018-05-10T17:48:08.527Z,16.90
2018-05-10T17:50:40.666Z,16.90
2018-05-10T17:55:43.055Z,16.90
2018-05-10T17:58:09.619Z,17.00
2018-05-10T18:00:40.842Z,17.10
2018-05-10T18:03:13.528Z,17.10
2018-05-10T18:11:46.299Z,17.00
2018-05-10T18:14:17.675Z,17.10
2018-05-10T18:16:45.165Z,17.10
2018-05-10T18:19:12.604Z,17.10
2018-05-10T18:21:38.918Z,17.00
2018-05-10T18:24:05.180Z,16.90
2018-05-10T18:26:32.479Z,16.80
2018-05-10T18:29:00.945Z,16.60
2018-05-10T18:31:44.734Z,16.50
2018-05-10T18:34:12.390Z,16.40
2018-05-10T18:36:39.717Z,16.20
2018-05-10T18:39:14.782Z,16.20
2018-05-10T18:41:41.390Z,16.10
2018-05-10T18:44:07.702Z,16.00
2018-05-10T18:46:36.666Z,16.00
2018-05-10T18:49:03.545Z,15.90
2018-05-10T18:51:33.339Z,15.80
2018-05-10T18:53:59.950Z,15.70
2018-05-10T18:56:26.745Z,15.60
2018-05-10T18:58:53.398Z,15.60
2018-05-10T19:01:20.382Z,15.40
2018-05-10T19:03:46.522Z,15.40
2018-05-10T19:06:12.769Z,15.40
2018-05-10T19:08:39.039Z,15.30
2018-05-10T19:11:06.972Z,15.20
2018-05-10T19:13:33.379Z,15.20
2018-05-10T19:16:00.406Z,15.10
2018-05-10T19:18:27.221Z,15.10
2018-05-10T19:20:53.475Z,15.00
2018-05-10T19:23:19.475Z,15.00
2018-05-10T19:25:46.567Z,14.80
2018-05-10T19:28:12.708Z,14.80
2018-05-10T19:30:38.866Z,14.80
2018-05-10T19:33:05.141Z,14.70
2018-05-10T19:35:31.254Z,14.70
2018-05-10T19:37:58.401Z,14.60
2018-05-10T19:40:24.551Z,14.60
2018-05-10T19:42:50.686Z,14.60
2018-05-10T19:45:16.862Z,14.60
2018-05-10T19:47:42.947Z,14.60
2018-05-10T19:50:09.082Z,14.50
2018-05-10T19:52:35.291Z,14.50
2018-05-10T19:55:01.517Z,14.50
2018-05-10T19:57:27.995Z,14.50
2018-05-10T19:59:54.632Z,14.50
2018-05-10T20:02:23.526Z,14.50
2018-05-10T20:04:55.591Z,14.50
2018-05-10T20:10:09.611Z,14.50
2018-05-10T20:12:36.455Z,14.50
2018-05-10T20:15:07.505Z,14.40
2018-05-10T20:17:34.355Z,14.40
2018-05-10T20:23:11.575Z,14.20
2018-05-10T20:28:50.050Z,14.10
2018-05-10T20:31:17.972Z,14.10
2018-05-10T20:33:44.381Z,14.00
2018-05-10T20:36:11.858Z,14.00
2018-05-10T20:38:38.742Z,14.00
2018-05-10T20:41:05.456Z,13.90
2018-05-10T20:43:31.645Z,13.90
2018-05-10T20:45:57.749Z,13.90
2018-05-10T20:48:24.602Z,13.80
2018-05-10T20:50:51.504Z,13.80
2018-05-10T20:53:17.632Z,13.80
2018-05-10T20:55:43.759Z,13.80
2018-05-10T20:58:09.898Z,13.70
2018-05-10T21:00:37.121Z,13.70
2018-05-10T21:03:09.425Z,13.80
2018-05-10T21:05:35.821Z,13.80
2018-05-10T21:08:02.889Z,13.60
2018-05-10T21:10:29.064Z,13.60
2018-05-10T21:12:56.262Z,13.60
2018-05-10T21:15:22.865Z,13.50
2018-05-10T21:17:49.610Z,13.40
2018-05-10T21:20:17.012Z,13.40
2018-05-10T21:22:43.287Z,13.30
2018-05-10T21:25:10.419Z,13.30
2018-05-10T21:27:36.714Z,13.20
2018-05-10T21:30:03.413Z,13.20
2018-05-10T21:32:29.616Z,13.10
2018-05-10T21:34:55.936Z,13.10
2018-05-10T21:37:26.369Z,13.00
2018-05-10T21:39:52.699Z,13.00
2018-05-10T21:42:19.724Z,12.90
2018-05-10T21:44:45.981Z,12.90
2018-05-10T21:47:12.067Z,12.90
2018-05-10T21:49:56.331Z,12.80
2018-05-10T21:52:22.627Z,12.80
2018-05-10T21:54:49.373Z,12.80
2018-05-10T21:57:24.166Z,12.70
2018-05-10T22:05:55.705Z,12.50
2018-05-10T22:14:37.112Z,12.50
2018-05-10T22:17:03.353Z,12.40
2018-05-10T22:19:29.638Z,12.40
2018-05-10T22:21:55.777Z,12.40
2018-05-10T22:24:23.288Z,12.30
2018-05-10T22:26:49.430Z,12.20
2018-05-10T22:29:15.555Z,12.20
2018-05-10T22:31:41.700Z,12.20
2018-05-10T22:34:07.851Z,12.10
2018-05-10T22:36:33.994Z,12.10
2018-05-10T22:39:00.171Z,12.10
2018-05-10T22:41:26.338Z,12.10
2018-05-10T22:43:52.470Z,12.10
2018-05-10T22:46:18.622Z,12.00
2018-05-10T22:48:44.731Z,11.90
2018-05-10T22:51:11.130Z,11.90
2018-05-10T22:53:37.357Z,12.00
2018-05-10T22:56:04.209Z,12.00
2018-05-10T22:58:31.088Z,12.00
2018-05-10T23:00:57.218Z,12.00
2018-05-10T23:03:23.339Z,12.00
2018-05-10T23:05:49.523Z,12.00
2018-05-10T23:08:15.620Z,12.00
2018-05-10T23:10:48.732Z,11.90
2018-05-10T23:13:14.876Z,11.80
2018-05-10T23:15:41.758Z,11.70
2018-05-10T23:18:07.885Z,11.60
2018-05-10T23:20:34.001Z,11.60
2018-05-10T23:23:00.150Z,11.60
2018-05-10T23:25:26.255Z,11.60
2018-05-10T23:27:52.349Z,11.60
2018-05-10T23:30:18.469Z,11.50
2018-05-10T23:32:45.348Z,11.30
2018-05-10T23:35:11.490Z,11.30
2018-05-10T23:37:37.638Z,11.40
2018-05-10T23:40:03.758Z,11.40
2018-05-10T23:42:29.857Z,11.40
2018-05-10T23:44:55.957Z,11.30
2018-05-10T23:47:22.803Z,11.20
2018-05-10T23:49:49.039Z,11.20
2018-05-10T23:52:15.198Z,11.10
2018-05-10T23:54:41.305Z,11.00
2018-05-10T23:57:07.439Z,10.90
2018-05-10T23:59:33.542Z,10.90
